sensor_id;sensor_type;location;lat;lon;timestamp;P1;durP1;ratioP1;P2;durP2;ratioP2
908;SDS011;441;51.192;6.788;2022-12-24T00:00:56;6.33;;;5.93;;
908;SDS011;441;51.192;6.788;2022-12-24T00:03:24;6.53;;;6.03;;
908;SDS011;441;51.192;6.788;2022-12-24T00:05:51;5.80;;;5.60;;
908;SDS011;441;51.192;6.788;2022-12-24T00:08:18;5.93;;;5.63;;
908;SDS011;441;51.192;6.788;2022-12-24T00:10:47;6.00;;;5.70;;
908;SDS011;441;51.192;6.788;2022-12-24T00:13:15;5.40;;;5.30;;
908;SDS011;441;51.192;6.788;2022-12-24T00:15:42;5.30;;;5.10;;
908;SDS011;441;51.192;6.788;2022-12-24T00:18:09;5.50;;;5.30;;
908;SDS011;441;51.192;6.788;2022-12-24T00:20:37;5.17;;;4.97;;
908;SDS011;441;51.192;6.788;2022-12-24T00:23:03;5.33;;;5.03;;
908;SDS011;441;51.192;6.788;2022-12-24T00:25:30;5.00;;;4.90;;
908;SDS011;441;51.192;6.788;2022-12-24T00:27:57;7.37;;;5.57;;
908;SDS011;441;51.192;6.788;2022-12-24T00:30:24;5.50;;;5.30;;
908;SDS011;441;51.192;6.788;2022-12-24T00:32:51;6.10;;;5.40;;
908;SDS011;441;51.192;6.788;2022-12-24T00:35:17;6.00;;;5.60;;
908;SDS011;441;51.192;6.788;2022-12-24T00:37:47;6.00;;;5.80;;
908;SDS011;441;51.192;6.788;2022-12-24T00:40:14;5.73;;;5.53;;
908;SDS011;441;51.192;6.788;2022-12-24T00:42:41;4.83;;;4.63;;
908;SDS011;441;51.192;6.788;2022-12-24T00:45:08;5.87;;;5.67;;
908;SDS011;441;51.192;6.788;2022-12-24T00:47:36;6.60;;;6.40;;
908;SDS011;441;51.192;6.788;2022-12-24T00:50:03;5.20;;;4.90;;
908;SDS011;441;51.192;6.788;2022-12-24T00:52:31;5.60;;;5.20;;
908;SDS011;441;51.192;6.788;2022-12-24T00:54:59;5.40;;;5.10;;
908;SDS011;441;51.192;6.788;2022-12-24T00:57:26;6.13;;;5.83;;
908;SDS011;441;51.192;6.788;2022-12-24T00:59:53;5.77;;;5.53;;
908;SDS011;441;51.192;6.788;2022-12-24T01:02:20;5.90;;;5.47;;
908;SDS011;441;51.192;6.788;2022-12-24T01:04:47;5.80;;;5.60;;
908;SDS011;441;51.192;6.788;2022-12-24T01:07:31;5.70;;;5.60;;
908;SDS011;441;51.192;6.788;2022-12-24T01:10:00;6.07;;;5.67;;
908;SDS011;441;51.192;6.788;2022-12-24T01:12:26;5.60;;;5.40;;
908;SDS011;441;51.192;6.788;2022-12-24T01:14:53;5.77;;;5.37;;
908;SDS011;441;51.192;6.788;2022-12-24T01:17:20;5.30;;;5.20;;
908;SDS011;441;51.192;6.788;2022-12-24T01:19:47;5.27;;;4.97;;
908;SDS011;441;51.192;6.788;2022-12-24T01:22:14;5.60;;;5.20;;
908;SDS011;441;51.192;6.788;2022-12-24T01:24:41;5.63;;;5.30;;
908;SDS011;441;51.192;6.788;2022-12-24T01:27:10;5.70;;;5.60;;
908;SDS011;441;51.192;6.788;2022-12-24T01:29:37;5.30;;;5.10;;
908;SDS011;441;51.192;6.788;2022-12-24T01:32:03;6.30;;;6.00;;
908;SDS011;441;51.192;6.788;2022-12-24T01:34:30;4.80;;;4.70;;
908;SDS011;441;51.192;6.788;2022-12-24T01:36:57;6.10;;;5.83;;
908;SDS011;441;51.192;6.788;2022-12-24T01:39:24;5.80;;;5.60;;
908;SDS011;441;51.192;6.788;2022-12-24T01:41:51;5.90;;;5.60;;
908;SDS011;441;51.192;6.788;2022-12-24T01:44:39;5.60;;;5.50;;
908;SDS011;441;51.192;6.788;2022-12-24T01:47:07;6.03;;;5.63;;
908;SDS011;441;51.192;6.788;2022-12-24T01:49:38;5.80;;;5.60;;
908;SDS011;441;51.192;6.788;2022-12-24T01:52:10;5.23;;;5.03;;
908;SDS011;441;51.192;6.788;2022-12-24T01:54:40;5.50;;;5.30;;
908;SDS011;441;51.192;6.788;2022-12-24T01:57:12;5.60;;;5.30;;
908;SDS011;441;51.192;6.788;2022-12-24T01:59:45;4.97;;;4.77;;
908;SDS011;441;51.192;6.788;2022-12-24T02:02:15;5.83;;;5.70;;
908;SDS011;441;51.192;6.788;2022-12-24T02:04:43;5.90;;;5.60;;
908;SDS011;441;51.192;6.788;2022-12-24T02:07:16;6.00;;;5.57;;
908;SDS011;441;51.192;6.788;2022-12-24T02:09:44;6.30;;;5.87;;
908;SDS011;441;51.192;6.788;2022-12-24T02:12:12;5.20;;;5.10;;
908;SDS011;441;51.192;6.788;2022-12-24T02:14:39;5.77;;;5.47;;
908;SDS011;441;51.192;6.788;2022-12-24T02:17:09;5.80;;;5.50;;
908;SDS011;441;51.192;6.788;2022-12-24T02:22:42;5.83;;;5.63;;
908;SDS011;441;51.192;6.788;2022-12-24T02:25:29;5.13;;;5.03;;
908;SDS011;441;51.192;6.788;2022-12-24T02:28:08;5.67;;;5.47;;
908;SDS011;441;51.192;6.788;2022-12-24T02:30:47;5.40;;;5.20;;
908;SDS011;441;51.192;6.788;2022-12-24T02:33:23;7.70;;;7.07;;
908;SDS011;441;51.192;6.788;2022-12-24T02:35:55;5.10;;;4.90;;
908;SDS011;441;51.192;6.788;2022-12-24T02:38:27;5.80;;;5.40;;
908;SDS011;441;51.192;6.788;2022-12-24T02:40:59;5.53;;;5.33;;
908;SDS011;441;51.192;6.788;2022-12-24T02:43:32;5.30;;;5.00;;
908;SDS011;441;51.192;6.788;2022-12-24T02:46:04;5.50;;;5.10;;
908;SDS011;441;51.192;6.788;2022-12-24T02:48:34;4.73;;;4.60;;
908;SDS011;441;51.192;6.788;2022-12-24T02:51:05;5.20;;;5.00;;
908;SDS011;441;51.192;6.788;2022-12-24T02:53:33;4.80;;;4.60;;
908;SDS011;441;51.192;6.788;2022-12-24T02:56:06;5.57;;;5.33;;
908;SDS011;441;51.192;6.788;2022-12-24T03:01:49;5.40;;;5.10;;
908;SDS011;441;51.192;6.788;2022-12-24T03:04:24;4.70;;;4.60;;
908;SDS011;441;51.192;6.788;2022-12-24T03:07:05;4.70;;;4.57;;
908;SDS011;441;51.192;6.788;2022-12-24T03:09:42;7.73;;;7.23;;
908;SDS011;441;51.192;6.788;2022-12-24T03:12:18;5.20;;;5.00;;
908;SDS011;441;51.192;6.788;2022-12-24T03:14:49;5.50;;;5.17;;
908;SDS011;441;51.192;6.788;2022-12-24T03:17:18;4.90;;;4.80;;
908;SDS011;441;51.192;6.788;2022-12-24T03:19:45;6.20;;;5.80;;
908;SDS011;441;51.192;6.788;2022-12-24T03:22:13;4.90;;;4.80;;
908;SDS011;441;51.192;6.788;2022-12-24T03:24:43;5.50;;;5.17;;
908;SDS011;441;51.192;6.788;2022-12-24T03:27:10;4.80;;;4.70;;
908;SDS011;441;51.192;6.788;2022-12-24T03:29:38;4.70;;;4.60;;
908;SDS011;441;51.192;6.788;2022-12-24T03:32:05;5.37;;;5.10;;
908;SDS011;441;51.192;6.788;2022-12-24T03:34:33;4.70;;;4.60;;
908;SDS011;441;51.192;6.788;2022-12-24T03:37:00;7.50;;;7.20;;
908;SDS011;441;51.192;6.788;2022-12-24T03:39:28;5.30;;;5.20;;
908;SDS011;441;51.192;6.788;2022-12-24T03:41:55;5.30;;;5.07;;
908;SDS011;441;51.192;6.788;2022-12-24T03:44:21;5.20;;;4.90;;
908;SDS011;441;51.192;6.788;2022-12-24T03:46:48;5.03;;;4.80;;
908;SDS011;441;51.192;6.788;2022-12-24T03:49:15;5.20;;;4.90;;
908;SDS011;441;51.192;6.788;2022-12-24T03:51:43;5.23;;;5.03;;
908;SDS011;441;51.192;6.788;2022-12-24T03:54:10;5.07;;;4.97;;
908;SDS011;441;51.192;6.788;2022-12-24T03:56:37;4.83;;;4.67;;
908;SDS011;441;51.192;6.788;2022-12-24T03:59:03;5.50;;;5.30;;
908;SDS011;441;51.192;6.788;2022-12-24T04:01:30;5.83;;;5.53;;
908;SDS011;441;51.192;6.788;2022-12-24T04:03:57;5.47;;;5.17;;
908;SDS011;441;51.192;6.788;2022-12-24T04:06:24;5.40;;;5.10;;
908;SDS011;441;51.192;6.788;2022-12-24T04:08:52;4.87;;;4.77;;
908;SDS011;441;51.192;6.788;2022-12-24T04:11:19;5.00;;;4.80;;
908;SDS011;441;51.192;6.788;2022-12-24T04:13:46;4.97;;;4.87;;
908;SDS011;441;51.192;6.788;2022-12-24T04:16:13;4.73;;;4.63;;
908;SDS011;441;51.192;6.788;2022-12-24T04:18:41;4.80;;;4.70;;
908;SDS011;441;51.192;6.788;2022-12-24T04:21:09;5.83;;;5.73;;
908;SDS011;441;51.192;6.788;2022-12-24T04:23:37;5.03;;;4.93;;
908;SDS011;441;51.192;6.788;2022-12-24T04:26:07;5.23;;;4.90;;
908;SDS011;441;51.192;6.788;2022-12-24T04:28:37;5.50;;;5.27;;
908;SDS011;441;51.192;6.788;2022-12-24T04:31:05;5.07;;;4.90;;
908;SDS011;441;51.192;6.788;2022-12-24T04:33:33;6.00;;;5.70;;
908;SDS011;441;51.192;6.788;2022-12-24T04:36:00;4.73;;;4.63;;
908;SDS011;441;51.192;6.788;2022-12-24T04:38:28;4.87;;;4.70;;
908;SDS011;441;51.192;6.788;2022-12-24T04:40:58;4.97;;;4.70;;
908;SDS011;441;51.192;6.788;2022-12-24T04:43:27;4.80;;;4.67;;
908;SDS011;441;51.192;6.788;2022-12-24T04:45:54;4.50;;;4.40;;
908;SDS011;441;51.192;6.788;2022-12-24T04:48:21;6.90;;;6.60;;
908;SDS011;441;51.192;6.788;2022-12-24T04:50:48;5.23;;;5.00;;
908;SDS011;441;51.192;6.788;2022-12-24T04:53:15;4.63;;;4.53;;
908;SDS011;441;51.192;6.788;2022-12-24T04:55:43;4.83;;;4.73;;
908;SDS011;441;51.192;6.788;2022-12-24T04:58:10;4.87;;;4.77;;
908;SDS011;441;51.192;6.788;2022-12-24T05:00:40;5.40;;;5.20;;
908;SDS011;441;51.192;6.788;2022-12-24T05:03:07;6.07;;;5.70;;
908;SDS011;441;51.192;6.788;2022-12-24T05:05:34;4.67;;;4.57;;
908;SDS011;441;51.192;6.788;2022-12-24T05:08:01;5.17;;;4.97;;
908;SDS011;441;51.192;6.788;2022-12-24T05:10:28;5.37;;;5.17;;
908;SDS011;441;51.192;6.788;2022-12-24T05:12:54;5.07;;;4.90;;
908;SDS011;441;51.192;6.788;2022-12-24T05:15:21;5.03;;;4.90;;
908;SDS011;441;51.192;6.788;2022-12-24T05:17:50;4.57;;;4.47;;
908;SDS011;441;51.192;6.788;2022-12-24T05:20:17;5.30;;;5.10;;
908;SDS011;441;51.192;6.788;2022-12-24T05:22:44;5.37;;;5.27;;
908;SDS011;441;51.192;6.788;2022-12-24T05:25:29;5.20;;;5.00;;
908;SDS011;441;51.192;6.788;2022-12-24T05:28:17;5.17;;;4.97;;
908;SDS011;441;51.192;6.788;2022-12-24T05:30:44;5.30;;;5.10;;
908;SDS011;441;51.192;6.788;2022-12-24T05:33:12;5.50;;;5.30;;
908;SDS011;441;51.192;6.788;2022-12-24T05:35:39;5.40;;;5.20;;
908;SDS011;441;51.192;6.788;2022-12-24T05:38:06;7.20;;;6.70;;
908;SDS011;441;51.192;6.788;2022-12-24T05:40:32;5.60;;;5.40;;
908;SDS011;441;51.192;6.788;2022-12-24T05:42:59;5.13;;;4.93;;
908;SDS011;441;51.192;6.788;2022-12-24T05:45:27;5.27;;;5.10;;
908;SDS011;441;51.192;6.788;2022-12-24T05:47:53;4.93;;;4.70;;
908;SDS011;441;51.192;6.788;2022-12-24T05:50:22;5.13;;;5.03;;
908;SDS011;441;51.192;6.788;2022-12-24T05:52:48;4.80;;;4.70;;
908;SDS011;441;51.192;6.788;2022-12-24T05:55:15;5.10;;;4.83;;
908;SDS011;441;51.192;6.788;2022-12-24T05:57:42;5.13;;;5.03;;
908;SDS011;441;51.192;6.788;2022-12-24T06:00:09;5.33;;;5.23;;
908;SDS011;441;51.192;6.788;2022-12-24T06:02:36;5.97;;;5.87;;
908;SDS011;441;51.192;6.788;2022-12-24T06:05:03;6.00;;;5.90;;
908;SDS011;441;51.192;6.788;2022-12-24T06:07:32;6.17;;;5.97;;
908;SDS011;441;51.192;6.788;2022-12-24T06:09:59;5.40;;;5.20;;
908;SDS011;441;51.192;6.788;2022-12-24T06:12:26;4.77;;;4.67;;
908;SDS011;441;51.192;6.788;2022-12-24T06:14:53;5.00;;;4.90;;
908;SDS011;441;51.192;6.788;2022-12-24T06:17:19;5.43;;;5.13;;
908;SDS011;441;51.192;6.788;2022-12-24T06:19:46;5.60;;;5.40;;
908;SDS011;441;51.192;6.788;2022-12-24T06:22:13;5.87;;;5.67;;
908;SDS011;441;51.192;6.788;2022-12-24T06:24:41;5.10;;;5.00;;
908;SDS011;441;51.192;6.788;2022-12-24T06:27:08;4.53;;;4.43;;
908;SDS011;441;51.192;6.788;2022-12-24T06:29:35;5.40;;;5.20;;
908;SDS011;441;51.192;6.788;2022-12-24T06:32:02;5.63;;;5.40;;
908;SDS011;441;51.192;6.788;2022-12-24T06:34:28;5.97;;;5.67;;
908;SDS011;441;51.192;6.788;2022-12-24T06:36:55;5.40;;;5.20;;
908;SDS011;441;51.192;6.788;2022-12-24T06:39:22;6.07;;;5.67;;
908;SDS011;441;51.192;6.788;2022-12-24T06:41:51;5.40;;;5.30;;
908;SDS011;441;51.192;6.788;2022-12-24T06:44:17;5.80;;;5.50;;
908;SDS011;441;51.192;6.788;2022-12-24T06:46:44;5.80;;;5.60;;
908;SDS011;441;51.192;6.788;2022-12-24T06:49:11;6.10;;;5.80;;
908;SDS011;441;51.192;6.788;2022-12-24T06:51:38;5.40;;;5.30;;
908;SDS011;441;51.192;6.788;2022-12-24T06:54:05;5.37;;;5.07;;
908;SDS011;441;51.192;6.788;2022-12-24T06:56:32;5.20;;;5.10;;
908;SDS011;441;51.192;6.788;2022-12-24T06:59:00;5.53;;;5.30;;
908;SDS011;441;51.192;6.788;2022-12-24T07:01:27;5.33;;;5.13;;
908;SDS011;441;51.192;6.788;2022-12-24T07:03:54;5.50;;;5.40;;
908;SDS011;441;51.192;6.788;2022-12-24T07:06:23;5.53;;;5.40;;
908;SDS011;441;51.192;6.788;2022-12-24T07:08:51;5.20;;;5.00;;
908;SDS011;441;51.192;6.788;2022-12-24T07:11:18;6.20;;;5.90;;
908;SDS011;441;51.192;6.788;2022-12-24T07:13:46;5.50;;;5.40;;
908;SDS011;441;51.192;6.788;2022-12-24T07:16:14;5.20;;;5.10;;
908;SDS011;441;51.192;6.788;2022-12-24T07:18:41;5.27;;;5.17;;
908;SDS011;441;51.192;6.788;2022-12-24T07:21:08;5.83;;;5.63;;
908;SDS011;441;51.192;6.788;2022-12-24T07:23:35;6.33;;;6.10;;
908;SDS011;441;51.192;6.788;2022-12-24T07:26:02;5.80;;;5.70;;
908;SDS011;441;51.192;6.788;2022-12-24T07:28:30;6.47;;;6.13;;
908;SDS011;441;51.192;6.788;2022-12-24T07:30:58;6.47;;;6.10;;
908;SDS011;441;51.192;6.788;2022-12-24T07:33:28;5.90;;;5.73;;
908;SDS011;441;51.192;6.788;2022-12-24T07:35:59;6.70;;;6.50;;
908;SDS011;441;51.192;6.788;2022-12-24T07:38:27;6.10;;;5.90;;
908;SDS011;441;51.192;6.788;2022-12-24T07:40:54;5.20;;;5.10;;
908;SDS011;441;51.192;6.788;2022-12-24T07:43:21;5.40;;;5.30;;
908;SDS011;441;51.192;6.788;2022-12-24T07:45:48;5.80;;;5.40;;
908;SDS011;441;51.192;6.788;2022-12-24T07:48:15;6.23;;;5.87;;
908;SDS011;441;51.192;6.788;2022-12-24T07:50:43;6.30;;;6.00;;
908;SDS011;441;51.192;6.788;2022-12-24T07:53:10;5.67;;;5.50;;
908;SDS011;441;51.192;6.788;2022-12-24T07:55:37;5.70;;;5.50;;
908;SDS011;441;51.192;6.788;2022-12-24T07:58:04;6.23;;;6.03;;
908;SDS011;441;51.192;6.788;2022-12-24T08:00:31;5.83;;;5.63;;
908;SDS011;441;51.192;6.788;2022-12-24T08:02:57;5.87;;;5.57;;
908;SDS011;441;51.192;6.788;2022-12-24T08:05:25;5.80;;;5.60;;
908;SDS011;441;51.192;6.788;2022-12-24T08:07:53;5.80;;;5.60;;
908;SDS011;441;51.192;6.788;2022-12-24T08:10:20;5.30;;;5.20;;
908;SDS011;441;51.192;6.788;2022-12-24T08:12:47;5.83;;;5.73;;
908;SDS011;441;51.192;6.788;2022-12-24T08:15:14;5.80;;;5.70;;
908;SDS011;441;51.192;6.788;2022-12-24T08:17:42;6.10;;;5.97;;
908;SDS011;441;51.192;6.788;2022-12-24T08:20:09;6.53;;;6.13;;
908;SDS011;441;51.192;6.788;2022-12-24T08:22:36;6.30;;;6.13;;
908;SDS011;441;51.192;6.788;2022-12-24T08:25:05;5.83;;;5.73;;
908;SDS011;441;51.192;6.788;2022-12-24T08:27:33;6.73;;;6.27;;
908;SDS011;441;51.192;6.788;2022-12-24T08:30:00;6.27;;;6.17;;
908;SDS011;441;51.192;6.788;2022-12-24T08:32:27;6.60;;;6.30;;
908;SDS011;441;51.192;6.788;2022-12-24T08:34:53;5.97;;;5.77;;
908;SDS011;441;51.192;6.788;2022-12-24T08:37:20;6.47;;;6.27;;
908;SDS011;441;51.192;6.788;2022-12-24T08:39:47;6.63;;;6.30;;
908;SDS011;441;51.192;6.788;2022-12-24T08:42:15;6.90;;;6.40;;
908;SDS011;441;51.192;6.788;2022-12-24T08:44:43;7.07;;;6.63;;
908;SDS011;441;51.192;6.788;2022-12-24T08:47:10;6.40;;;6.20;;
908;SDS011;441;51.192;6.788;2022-12-24T08:49:37;6.60;;;6.27;;
908;SDS011;441;51.192;6.788;2022-12-24T08:52:04;6.90;;;6.70;;
908;SDS011;441;51.192;6.788;2022-12-24T08:54:31;5.63;;;5.53;;
908;SDS011;441;51.192;6.788;2022-12-24T08:56:58;6.60;;;6.20;;
908;SDS011;441;51.192;6.788;2022-12-24T08:59:26;5.90;;;5.70;;
908;SDS011;441;51.192;6.788;2022-12-24T09:01:53;5.60;;;5.50;;
908;SDS011;441;51.192;6.788;2022-12-24T09:04:20;6.53;;;6.33;;
908;SDS011;441;51.192;6.788;2022-12-24T09:06:47;6.03;;;5.93;;
908;SDS011;441;51.192;6.788;2022-12-24T09:09:13;6.30;;;6.20;;
908;SDS011;441;51.192;6.788;2022-12-24T09:11:40;6.00;;;5.80;;
908;SDS011;441;51.192;6.788;2022-12-24T09:14:07;6.60;;;6.40;;
908;SDS011;441;51.192;6.788;2022-12-24T09:16:35;5.50;;;5.40;;
908;SDS011;441;51.192;6.788;2022-12-24T09:19:02;6.30;;;6.00;;
908;SDS011;441;51.192;6.788;2022-12-24T09:21:29;6.07;;;5.87;;
908;SDS011;441;51.192;6.788;2022-12-24T09:23:56;6.87;;;6.67;;
908;SDS011;441;51.192;6.788;2022-12-24T09:26:26;7.20;;;6.80;;
908;SDS011;441;51.192;6.788;2022-12-24T09:28:55;7.30;;;6.97;;
908;SDS011;441;51.192;6.788;2022-12-24T09:31:23;6.53;;;6.43;;
908;SDS011;441;51.192;6.788;2022-12-24T09:33:51;6.87;;;6.67;;
908;SDS011;441;51.192;6.788;2022-12-24T09:36:18;6.67;;;6.37;;
908;SDS011;441;51.192;6.788;2022-12-24T09:38:46;6.80;;;6.60;;
908;SDS011;441;51.192;6.788;2022-12-24T09:41:14;6.20;;;6.03;;
908;SDS011;441;51.192;6.788;2022-12-24T09:43:51;6.13;;;6.03;;
908;SDS011;441;51.192;6.788;2022-12-24T09:46:24;6.30;;;6.00;;
908;SDS011;441;51.192;6.788;2022-12-24T09:48:57;6.53;;;6.33;;
908;SDS011;441;51.192;6.788;2022-12-24T09:51:30;6.70;;;6.50;;
908;SDS011;441;51.192;6.788;2022-12-24T09:54:02;6.53;;;6.33;;
908;SDS011;441;51.192;6.788;2022-12-24T09:56:32;6.23;;;6.13;;
908;SDS011;441;51.192;6.788;2022-12-24T09:59:05;7.67;;;7.27;;
908;SDS011;441;51.192;6.788;2022-12-24T10:01:38;6.13;;;6.03;;
908;SDS011;441;51.192;6.788;2022-12-24T10:04:10;6.90;;;6.67;;
908;SDS011;441;51.192;6.788;2022-12-24T10:06:44;6.20;;;6.10;;
908;SDS011;441;51.192;6.788;2022-12-24T10:09:18;6.17;;;5.97;;
908;SDS011;441;51.192;6.788;2022-12-24T10:11:55;6.70;;;6.40;;
908;SDS011;441;51.192;6.788;2022-12-24T10:14:36;6.57;;;6.37;;
908;SDS011;441;51.192;6.788;2022-12-24T10:17:20;6.37;;;6.20;;
908;SDS011;441;51.192;6.788;2022-12-24T10:19:59;6.10;;;5.90;;
908;SDS011;441;51.192;6.788;2022-12-24T10:22:34;6.67;;;6.37;;
908;SDS011;441;51.192;6.788;2022-12-24T10:25:13;6.50;;;6.20;;
908;SDS011;441;51.192;6.788;2022-12-24T10:27:44;7.20;;;6.90;;
908;SDS011;441;51.192;6.788;2022-12-24T10:30:13;6.70;;;6.50;;
908;SDS011;441;51.192;6.788;2022-12-24T10:32:41;6.50;;;6.37;;
908;SDS011;441;51.192;6.788;2022-12-24T10:35:15;6.80;;;6.60;;
908;SDS011;441;51.192;6.788;2022-12-24T10:37:47;6.60;;;6.40;;
908;SDS011;441;51.192;6.788;2022-12-24T10:40:16;6.63;;;6.43;;
908;SDS011;441;51.192;6.788;2022-12-24T10:42:51;6.27;;;6.07;;
908;SDS011;441;51.192;6.788;2022-12-24T10:45:19;6.17;;;5.97;;
908;SDS011;441;51.192;6.788;2022-12-24T10:47:48;6.93;;;6.70;;
908;SDS011;441;51.192;6.788;2022-12-24T10:50:23;6.90;;;6.70;;
908;SDS011;441;51.192;6.788;2022-12-24T10:52:59;6.87;;;6.47;;
908;SDS011;441;51.192;6.788;2022-12-24T10:55:32;7.73;;;6.90;;
908;SDS011;441;51.192;6.788;2022-12-24T10:58:00;6.77;;;6.37;;
908;SDS011;441;51.192;6.788;2022-12-24T11:00:29;6.70;;;6.50;;
908;SDS011;441;51.192;6.788;2022-12-24T11:03:07;7.30;;;7.00;;
908;SDS011;441;51.192;6.788;2022-12-24T11:05:59;6.40;;;6.30;;
908;SDS011;441;51.192;6.788;2022-12-24T11:08:27;7.13;;;6.63;;
908;SDS011;441;51.192;6.788;2022-12-24T11:10:55;7.90;;;7.50;;
908;SDS011;441;51.192;6.788;2022-12-24T11:13:24;6.63;;;6.43;;
908;SDS011;441;51.192;6.788;2022-12-24T11:15:58;6.80;;;6.40;;
908;SDS011;441;51.192;6.788;2022-12-24T11:18:27;6.13;;;5.93;;
908;SDS011;441;51.192;6.788;2022-12-24T11:20:54;6.50;;;6.30;;
908;SDS011;441;51.192;6.788;2022-12-24T11:23:25;6.60;;;6.40;;
908;SDS011;441;51.192;6.788;2022-12-24T11:25:53;6.70;;;6.40;;
908;SDS011;441;51.192;6.788;2022-12-24T11:28:22;6.60;;;6.27;;
908;SDS011;441;51.192;6.788;2022-12-24T11:30:55;6.20;;;6.00;;
908;SDS011;441;51.192;6.788;2022-12-24T11:33:27;6.50;;;6.30;;
908;SDS011;441;51.192;6.788;2022-12-24T11:36:01;6.63;;;6.33;;
908;SDS011;441;51.192;6.788;2022-12-24T11:38:32;6.83;;;6.63;;
908;SDS011;441;51.192;6.788;2022-12-24T11:41:04;7.00;;;6.80;;
908;SDS011;441;51.192;6.788;2022-12-24T11:43:36;6.73;;;6.50;;
908;SDS011;441;51.192;6.788;2022-12-24T11:46:13;7.63;;;7.33;;
908;SDS011;441;51.192;6.788;2022-12-24T11:48:45;8.60;;;7.83;;
908;SDS011;441;51.192;6.788;2022-12-24T11:51:20;6.67;;;6.47;;
908;SDS011;441;51.192;6.788;2022-12-24T11:53:52;7.00;;;6.60;;
908;SDS011;441;51.192;6.788;2022-12-24T11:56:31;6.90;;;6.70;;
908;SDS011;441;51.192;6.788;2022-12-24T11:59:02;8.47;;;7.90;;
908;SDS011;441;51.192;6.788;2022-12-24T12:01:37;11.77;;;8.97;;
908;SDS011;441;51.192;6.788;2022-12-24T12:04:14;15.87;;;9.37;;
908;SDS011;441;51.192;6.788;2022-12-24T12:06:45;31.03;;;12.97;;
908;SDS011;441;51.192;6.788;2022-12-24T12:09:16;20.60;;;11.07;;
908;SDS011;441;51.192;6.788;2022-12-24T12:11:47;23.90;;;9.60;;
908;SDS011;441;51.192;6.788;2022-12-24T12:14:19;20.47;;;10.43;;
908;SDS011;441;51.192;6.788;2022-12-24T12:16:54;22.00;;;11.00;;
908;SDS011;441;51.192;6.788;2022-12-24T12:19:33;17.67;;;9.53;;
908;SDS011;441;51.192;6.788;2022-12-24T12:22:06;16.80;;;10.60;;
908;SDS011;441;51.192;6.788;2022-12-24T12:24:53;13.23;;;9.60;;
908;SDS011;441;51.192;6.788;2022-12-24T12:27:24;11.30;;;9.30;;
908;SDS011;441;51.192;6.788;2022-12-24T12:29:57;16.30;;;9.20;;
908;SDS011;441;51.192;6.788;2022-12-24T12:32:29;11.47;;;9.53;;
908;SDS011;441;51.192;6.788;2022-12-24T12:35:04;10.80;;;9.67;;
908;SDS011;441;51.192;6.788;2022-12-24T12:37:42;10.13;;;7.97;;
908;SDS011;441;51.192;6.788;2022-12-24T12:40:15;11.83;;;8.27;;
908;SDS011;441;51.192;6.788;2022-12-24T12:42:44;10.50;;;8.70;;
908;SDS011;441;51.192;6.788;2022-12-24T12:48:19;10.00;;;8.47;;
908;SDS011;441;51.192;6.788;2022-12-24T12:50:57;9.97;;;8.77;;
908;SDS011;441;51.192;6.788;2022-12-24T12:53:30;8.80;;;8.23;;
908;SDS011;441;51.192;6.788;2022-12-24T12:56:10;9.37;;;8.20;;
908;SDS011;441;51.192;6.788;2022-12-24T12:58:46;9.17;;;7.80;;
908;SDS011;441;51.192;6.788;2022-12-24T13:01:19;8.97;;;8.30;;
908;SDS011;441;51.192;6.788;2022-12-24T13:03:59;8.40;;;7.73;;
908;SDS011;441;51.192;6.788;2022-12-24T13:06:52;8.70;;;7.90;;
908;SDS011;441;51.192;6.788;2022-12-24T13:09:36;8.70;;;8.10;;
908;SDS011;441;51.192;6.788;2022-12-24T13:12:30;8.70;;;7.90;;
908;SDS011;441;51.192;6.788;2022-12-24T13:15:21;10.63;;;9.60;;
908;SDS011;441;51.192;6.788;2022-12-24T13:18:06;8.80;;;7.90;;
908;SDS011;441;51.192;6.788;2022-12-24T13:20:45;9.43;;;8.53;;
908;SDS011;441;51.192;6.788;2022-12-24T13:23:14;8.97;;;8.47;;
908;SDS011;441;51.192;6.788;2022-12-24T13:25:45;9.33;;;8.27;;
908;SDS011;441;51.192;6.788;2022-12-24T13:28:16;9.03;;;8.40;;
908;SDS011;441;51.192;6.788;2022-12-24T13:33:54;9.63;;;8.10;;
908;SDS011;441;51.192;6.788;2022-12-24T13:36:22;10.07;;;9.20;;
908;SDS011;441;51.192;6.788;2022-12-24T13:38:50;9.67;;;9.03;;
908;SDS011;441;51.192;6.788;2022-12-24T13:41:37;8.83;;;8.00;;
908;SDS011;441;51.192;6.788;2022-12-24T13:44:24;8.50;;;7.83;;
908;SDS011;441;51.192;6.788;2022-12-24T13:46:57;7.93;;;7.53;;
908;SDS011;441;51.192;6.788;2022-12-24T13:49:40;8.00;;;7.33;;
908;SDS011;441;51.192;6.788;2022-12-24T13:52:16;8.63;;;8.13;;
908;SDS011;441;51.192;6.788;2022-12-24T13:54:48;7.97;;;7.37;;
908;SDS011;441;51.192;6.788;2022-12-24T13:57:30;7.83;;;7.43;;
908;SDS011;441;51.192;6.788;2022-12-24T14:00:03;7.50;;;7.10;;
908;SDS011;441;51.192;6.788;2022-12-24T14:02:34;8.57;;;7.83;;
908;SDS011;441;51.192;6.788;2022-12-24T14:05:07;8.60;;;7.80;;
908;SDS011;441;51.192;6.788;2022-12-24T14:07:44;8.03;;;7.33;;
908;SDS011;441;51.192;6.788;2022-12-24T14:10:18;8.73;;;7.97;;
908;SDS011;441;51.192;6.788;2022-12-24T14:12:48;7.60;;;7.13;;
908;SDS011;441;51.192;6.788;2022-12-24T14:18:31;9.00;;;8.37;;
908;SDS011;441;51.192;6.788;2022-12-24T14:20:59;7.73;;;7.30;;
908;SDS011;441;51.192;6.788;2022-12-24T14:23:32;7.50;;;7.00;;
908;SDS011;441;51.192;6.788;2022-12-24T14:26:08;7.97;;;7.40;;
908;SDS011;441;51.192;6.788;2022-12-24T14:28:40;7.60;;;7.10;;
908;SDS011;441;51.192;6.788;2022-12-24T14:31:12;7.40;;;7.10;;
908;SDS011;441;51.192;6.788;2022-12-24T14:33:42;8.67;;;7.97;;
908;SDS011;441;51.192;6.788;2022-12-24T14:36:09;7.40;;;6.70;;
908;SDS011;441;51.192;6.788;2022-12-24T14:38:39;7.57;;;7.17;;
908;SDS011;441;51.192;6.788;2022-12-24T14:41:08;7.30;;;7.00;;
908;SDS011;441;51.192;6.788;2022-12-24T14:43:49;7.20;;;6.80;;
908;SDS011;441;51.192;6.788;2022-12-24T14:46:23;7.00;;;6.60;;
908;SDS011;441;51.192;6.788;2022-12-24T14:48:59;7.10;;;6.80;;
908;SDS011;441;51.192;6.788;2022-12-24T14:51:36;7.50;;;7.00;;
908;SDS011;441;51.192;6.788;2022-12-24T14:54:17;7.90;;;7.40;;
908;SDS011;441;51.192;6.788;2022-12-24T14:57:10;7.67;;;7.17;;
908;SDS011;441;51.192;6.788;2022-12-24T14:59:46;8.20;;;7.80;;
908;SDS011;441;51.192;6.788;2022-12-24T15:02:22;8.23;;;7.93;;
908;SDS011;441;51.192;6.788;2022-12-24T15:05:05;7.90;;;7.50;;
908;SDS011;441;51.192;6.788;2022-12-24T15:07:34;7.20;;;6.80;;
908;SDS011;441;51.192;6.788;2022-12-24T15:10:04;7.03;;;6.60;;
908;SDS011;441;51.192;6.788;2022-12-24T15:12:31;7.90;;;7.60;;
908;SDS011;441;51.192;6.788;2022-12-24T15:14:58;7.60;;;7.10;;
908;SDS011;441;51.192;6.788;2022-12-24T15:17:25;7.10;;;6.90;;
908;SDS011;441;51.192;6.788;2022-12-24T15:19:53;7.40;;;7.00;;
908;SDS011;441;51.192;6.788;2022-12-24T15:22:24;7.30;;;6.90;;
908;SDS011;441;51.192;6.788;2022-12-24T15:24:54;6.80;;;6.50;;
908;SDS011;441;51.192;6.788;2022-12-24T15:27:22;7.83;;;7.30;;
908;SDS011;441;51.192;6.788;2022-12-24T15:29:50;8.63;;;7.80;;
908;SDS011;441;51.192;6.788;2022-12-24T15:32:19;7.80;;;7.40;;
908;SDS011;441;51.192;6.788;2022-12-24T15:34:47;7.63;;;7.20;;
908;SDS011;441;51.192;6.788;2022-12-24T15:37:15;7.83;;;7.43;;
908;SDS011;441;51.192;6.788;2022-12-24T15:39:48;7.00;;;6.60;;
908;SDS011;441;51.192;6.788;2022-12-24T15:42:19;7.23;;;6.90;;
908;SDS011;441;51.192;6.788;2022-12-24T15:44:49;7.50;;;7.20;;
908;SDS011;441;51.192;6.788;2022-12-24T15:47:24;7.50;;;7.00;;
908;SDS011;441;51.192;6.788;2022-12-24T15:49:54;7.63;;;7.13;;
908;SDS011;441;51.192;6.788;2022-12-24T15:52:22;7.53;;;7.13;;
908;SDS011;441;51.192;6.788;2022-12-24T15:54:51;8.00;;;7.40;;
908;SDS011;441;51.192;6.788;2022-12-24T15:57:23;8.47;;;7.97;;
908;SDS011;441;51.192;6.788;2022-12-24T15:59:53;7.87;;;7.57;;
908;SDS011;441;51.192;6.788;2022-12-24T16:02:32;7.93;;;7.70;;
908;SDS011;441;51.192;6.788;2022-12-24T16:05:18;7.70;;;7.40;;
908;SDS011;441;51.192;6.788;2022-12-24T16:11:08;8.40;;;8.03;;
908;SDS011;441;51.192;6.788;2022-12-24T16:13:50;8.10;;;7.90;;
908;SDS011;441;51.192;6.788;2022-12-24T16:16:30;10.80;;;10.30;;
908;SDS011;441;51.192;6.788;2022-12-24T16:19:03;8.90;;;8.40;;
908;SDS011;441;51.192;6.788;2022-12-24T16:21:33;9.73;;;9.27;;
908;SDS011;441;51.192;6.788;2022-12-24T16:24:03;9.37;;;8.97;;